Time;durP1;ratioP1;P1;durP2;ratioP2;P2;SDS_P1;SDS_P2;PMS_P1;PMS_P2;Temp;Humidity;BMP_temperature;BMP_pressure;BME280_temperature;BME280_humidity;BME280_pressure;Samples;Min_cycle;Max_cycle;Signal;HPM_P1;HPM_P2
2021/05/20 00:00:30;;;;;;;4.20;3.45;;;;;;;17.45;43.43;101970.94;4126738;28;20484;-57
2021/05/20 00:02:31;;;;;;;5.13;3.28;;;;;;;17.72;42.77;101964.91;4132731;28;20037;-58
2021/05/20 00:04:32;;;;;;;5.40;3.50;;;;;;;17.80;42.72;101973.69;4128539;28;20512;-57
2021/05/20 00:06:32;;;;;;;3.42;3.13;;;;;;;17.67;43.06;101973.94;4128680;28;20050;-58
2021/05/20 00:08:32;;;;;;;4.07;3.30;;;;;;;17.87;42.46;101970.78;4130834;28;20041;-57
2021/05/20 00:10:33;;;;;;;4.57;2.95;;;;;;;17.84;42.30;101970.44;4127473;28;20430;-63
2021/05/20 00:12:35;;;;;;;4.57;3.00;;;;;;;17.65;42.78;101967.81;4129440;28;20479;-61
2021/05/20 00:14:35;;;;;;;3.78;3.30;;;;;;;17.80;42.26;101973.69;4128810;28;20130;-61
2021/05/20 00:16:36;;;;;;;4.25;3.47;;;;;;;17.62;42.73;101973.84;4125917;28;20058;-62
2021/05/20 00:18:36;;;;;;;3.92;3.55;;;;;;;17.57;42.57;101969.03;4129135;28;20041;-61
2021/05/20 00:20:36;;;;;;;4.63;4.28;;;;;;;17.63;42.76;101967.22;4138236;28;20035;-61
2021/05/20 00:22:37;;;;;;;3.92;3.63;;;;;;;17.44;42.89;101970.09;4135724;28;20484;-63
2021/05/20 00:24:37;;;;;;;3.70;3.40;;;;;;;17.43;43.02;101960.09;4136325;28;20050;-63
2021/05/20 00:26:38;;;;;;;3.17;2.97;;;;;;;17.51;42.72;101963.63;4136887;28;20035;-65
2021/05/20 00:28:39;;;;;;;4.40;2.70;;;;;;;17.42;42.91;101954.81;4137709;28;20029;-63
2021/05/20 00:30:40;;;;;;;3.72;3.10;;;;;;;17.36;43.23;101962.16;4134022;28;20034;-63
2021/05/20 00:32:40;;;;;;;3.30;3.00;;;;;;;17.64;42.15;101963.34;4130885;28;20460;-64
2021/05/20 00:34:41;;;;;;;3.53;3.17;;;;;;;17.37;42.84;101965.78;4134644;28;20485;-63
2021/05/20 00:36:41;;;;;;;3.72;3.15;;;;;;;17.42;42.85;101965.88;4138263;28;20022;-63
2021/05/20 00:38:42;;;;;;;4.05;3.42;;;;;;;17.53;42.72;101973.34;4134776;28;20421;-64
2021/05/20 00:40:42;;;;;;;3.50;3.15;;;;;;;17.44;42.69;101970.09;4136811;28;20116;-65
2021/05/20 00:42:47;;;;;;;3.25;2.83;;;;;;;17.39;42.65;101977.44;4136097;28;20046;-64
2021/05/20 00:44:50;;;;;;;3.22;2.92;;;;;;;17.51;42.60;101977.47;4132371;28;20069;-63
2021/05/20 00:46:51;;;;;;;4.63;3.83;;;;;;;17.56;42.39;101978.41;4139776;28;20439;-63
2021/05/20 00:48:51;;;;;;;3.90;2.70;;;;;;;17.38;42.51;101982.13;4138022;28;20038;-63
2021/05/20 00:50:52;;;;;;;3.35;2.80;;;;;;;17.47;42.39;101977.06;4135267;28;20105;-63
2021/05/20 00:52:52;;;;;;;3.90;2.70;;;;;;;17.66;41.85;101986.13;4134150;28;20038;-61
2021/05/20 00:54:55;;;;;;;4.45;2.97;;;;;;;17.64;42.06;101985.50;4142623;28;20537;-61
2021/05/20 00:56:55;;;;;;;2.65;2.45;;;;;;;17.31;42.64;101986.94;4139666;28;20021;-61
2021/05/20 00:58:56;;;;;;;3.45;2.58;;;;;;;17.27;42.51;101969.13;4138909;28;20026;-60
2021/05/20 01:00:57;;;;;;;3.33;2.80;;;;;;;17.42;42.06;101994.38;4135707;28;20200;-61
2021/05/20 01:02:57;;;;;;;3.47;2.83;;;;;;;17.17;42.94;101988.28;4132004;28;20477;-61
2021/05/20 01:04:58;;;;;;;3.25;2.60;;;;;;;17.14;42.94;101988.75;4127223;28;20029;-61
2021/05/20 01:06:58;;;;;;;2.92;2.70;;;;;;;17.16;42.89;101992.09;4138385;28;20044;-61
2021/05/20 01:08:58;;;;;;;3.53;3.22;;;;;;;17.06;43.18;101982.47;4138180;28;20042;-64
2021/05/20 01:11:00;;;;;;;2.72;2.53;;;;;;;17.29;42.57;101984.41;4140327;28;20034;-61
2021/05/20 01:13:00;;;;;;;3.03;2.83;;;;;;;17.26;42.59;101984.91;4138174;28;20038;-61
2021/05/20 01:15:01;;;;;;;4.22;3.00;;;;;;;17.11;42.75;101999.19;4136157;28;20040;-62
2021/05/20 01:17:02;;;;;;;5.18;3.25;;;;;;;17.08;43.11;101987.78;4142794;28;20030;-61
2021/05/20 01:19:03;;;;;;;4.68;3.05;;;;;;;17.34;42.47;102000.31;4138871;28;20043;-61
2021/05/20 01:21:04;;;;;;;3.15;2.28;;;;;;;17.34;42.46;101985.63;4137319;28;20042;-62
2021/05/20 01:23:12;;;;;;;3.30;3.05;;;;;;;17.26;42.39;101995.97;4132997;28;20045;-62
2021/05/20 01:25:13;;;;;;;2.97;2.53;;;;;;;17.45;41.96;101988.38;4138536;28;20046;-62
2021/05/20 01:27:15;;;;;;;3.00;2.53;;;;;;;17.30;42.23;101993.53;4141295;28;20103;-63
2021/05/20 01:29:15;;;;;;;2.90;2.67;;;;;;;17.32;41.89;101999.72;4136240;28;20104;-62
2021/05/20 01:31:16;;;;;;;2.65;2.20;;;;;;;17.35;42.04;102007.53;4134455;28;20448;-62
2021/05/20 01:33:16;;;;;;;2.63;2.50;;;;;;;17.28;42.40;101998.50;4138849;28;20033;-62
2021/05/20 01:35:16;;;;;;;2.63;2.42;;;;;;;17.31;42.19;101998.00;4140603;28;20029;-63
2021/05/20 01:37:17;;;;;;;4.47;2.78;;;;;;;17.15;42.40;101998.72;4135766;28;20041;-61
2021/05/20 01:39:17;;;;;;;2.78;2.20;;;;;;;17.13;42.46;102000.88;4137789;28;20036;-63
2021/05/20 01:41:18;;;;;;;4.03;2.97;;;;;;;17.14;42.66;102002.59;4143319;28;20034;-62
2021/05/20 01:43:18;;;;;;;2.42;2.05;;;;;;;17.22;42.29;102008.59;4138018;28;20144;-63
2021/05/20 01:45:19;;;;;;;2.20;2.00;;;;;;;17.20;42.47;102010.75;4133385;28;20099;-63
2021/05/20 01:47:19;;;;;;;2.28;1.88;;;;;;;17.12;42.48;102013.88;4137952;28;20559;-63
2021/05/20 01:49:20;;;;;;;2.30;2.10;;;;;;;17.00;42.84;102007.50;4135191;28;20030;-62
2021/05/20 01:51:21;;;;;;;5.82;2.22;;;;;;;17.04;42.76;102009.53;4135064;28;20055;-63
2021/05/20 01:53:22;;;;;;;2.55;2.08;;;;;;;16.94;42.90;101998.22;4138658;28;20042;-62
2021/05/20 01:55:22;;;;;;;2.92;2.20;;;;;;;17.14;42.42;102000.66;4137525;28;20036;-62
2021/05/20 01:57:23;;;;;;;2.30;2.08;;;;;;;16.99;42.82;102006.66;4129690;28;20389;-62
2021/05/20 01:59:23;;;;;;;3.97;2.10;;;;;;;17.13;42.46;102010.00;4142772;28;20045;-62
2021/05/20 02:01:23;;;;;;;2.70;1.50;;;;;;;17.32;41.92;102008.00;4136692;28;20137;-62
2021/05/20 02:03:24;;;;;;;2.90;1.98;;;;;;;17.17;42.19;102005.69;4139492;28;20262;-63
2021/05/20 02:05:25;;;;;;;2.40;2.15;;;;;;;16.94;42.57;102003.75;4139321;28;20492;-66
2021/05/20 02:07:25;;;;;;;2.22;1.98;;;;;;;17.15;42.11;101994.03;4137333;28;20124;-62
2021/05/20 02:09:26;;;;;;;3.05;1.85;;;;;;;17.19;42.10;101997.16;4147209;28;20389;-62
2021/05/20 02:11:26;;;;;;;2.65;1.90;;;;;;;17.01;42.37;101995.34;4134272;28;20037;-63
2021/05/20 02:13:27;;;;;;;2.28;1.52;;;;;;;17.00;42.47;101997.25;4140017;28;20128;-62
2021/05/20 02:15:27;;;;;;;2.45;2.00;;;;;;;17.07;42.25;101997.16;4138612;28;20022;-62
2021/05/20 02:17:28;;;;;;;2.90;1.70;;;;;;;16.98;42.47;101991.13;4138369;28;20053;-62
2021/05/20 02:19:28;;;;;;;2.20;1.60;;;;;;;17.12;42.02;101997.28;4133013;28;20058;-62
2021/05/20 02:21:29;;;;;;;2.80;1.80;;;;;;;16.87;42.68;101986.44;4135188;28;20496;-62
2021/05/20 02:23:29;;;;;;;2.67;1.88;;;;;;;16.85;42.65;101983.03;4135956;28;20088;-62
2021/05/20 02:25:30;;;;;;;4.65;2.13;;;;;;;16.66;43.12;101988.66;4132225;28;20393;-62
2021/05/20 02:27:30;;;;;;;2.30;1.85;;;;;;;17.07;42.26;101986.09;4136275;28;20033;-62
2021/05/20 02:29:30;;;;;;;2.13;1.73;;;;;;;16.85;42.67;101985.81;4139687;28;20066;-61
2021/05/20 02:31:31;;;;;;;3.90;1.45;;;;;;;16.84;42.49;101989.69;4136891;28;20049;-61
2021/05/20 02:33:31;;;;;;;2.60;1.92;;;;;;;16.82;42.80;101983.53;4140625;28;20038;-61
2021/05/20 02:35:32;;;;;;;2.78;1.83;;;;;;;16.98;42.40;101979.25;4133169;28;20068;-61
2021/05/20 02:37:33;;;;;;;2.70;2.50;;;;;;;16.87;42.46;101980.91;4134089;28;20096;-61
2021/05/20 02:39:34;;;;;;;2.28;2.08;;;;;;;16.86;42.51;101979.22;4131900;28;20089;-61
2021/05/20 02:41:34;;;;;;;2.47;2.10;;;;;;;16.85;42.53;101983.03;4125025;28;20030;-61
2021/05/20 02:43:35;;;;;;;3.15;2.58;;;;;;;16.67;42.71;101976.53;4138046;28;20388;-61
2021/05/20 02:45:35;;;;;;;2.40;2.05;;;;;;;16.63;43.04;101980.78;4138338;28;20100;-61
2021/05/20 02:47:36;;;;;;;2.10;1.90;;;;;;;16.60;43.03;101978.50;4150931;28;20038;-61
2021/05/20 02:49:37;;;;;;;1.80;1.70;;;;;;;16.60;43.02;101974.91;4134920;28;20041;-61
2021/05/20 02:51:37;;;;;;;4.55;1.80;;;;;;;16.67;42.95;101976.53;4132759;28;20092;-61
2021/05/20 02:53:38;;;;;;;2.00;1.80;;;;;;;16.63;42.86;101972.50;4134255;28;20027;-61
2021/05/20 02:55:38;;;;;;;1.75;1.65;;;;;;;16.53;43.14;101975.84;4136205;28;20040;-61
2021/05/20 02:57:41;;;;;;;4.53;2.05;;;;;;;16.47;43.29;101978.72;4129026;28;20038;-61
2021/05/20 02:59:42;;;;;;;2.70;2.25;;;;;;;16.36;43.70;101975.66;4140538;28;20739;-61
2021/05/20 03:01:44;;;;;;;1.45;1.35;;;;;;;16.48;43.04;101966.56;4140464;28;20033;-61
2021/05/20 03:03:44;;;;;;;1.75;1.65;;;;;;;16.29;43.61;101974.06;4146576;28;20511;-61
2021/05/20 03:05:45;;;;;;;4.47;1.40;;;;;;;16.30;43.66;101971.06;4140182;28;20034;-61
2021/05/20 03:07:46;;;;;;;3.08;1.88;;;;;;;16.18;43.61;101968.25;4139642;28;20038;-61
2021/05/20 03:09:46;;;;;;;1.70;1.60;;;;;;;16.14;43.77;101966.19;4133468;28;20046;-62
2021/05/20 03:11:47;;;;;;;2.53;1.70;;;;;;;16.09;44.13;101961.38;4139982;28;20089;-63
2021/05/20 03:13:47;;;;;;;2.28;1.80;;;;;;;16.02;43.96;101957.88;4137716;28;20034;-62
2021/05/20 03:15:48;;;;;;;2.28;1.95;;;;;;;16.10;43.64;101949.25;4135480;28;20046;-62
2021/05/20 03:17:48;;;;;;;4.63;2.25;;;;;;;16.00;44.33;101962.75;4148113;28;20079;-62
2021/05/20 03:19:49;;;;;;;2.47;1.73;;;;;;;15.99;44.20;101967.44;4140319;28;20760;-62
2021/05/20 03:21:49;;;;;;;2.80;1.90;;;;;;;15.98;44.34;101964.91;4141354;28;20541;-64
2021/05/20 03:23:50;;;;;;;3.17;1.80;;;;;;;16.00;44.14;101971.91;4137963;28;20067;-62
2021/05/20 03:25:50;;;;;;;3.55;1.80;;;;;;;16.03;43.84;101965.06;4142554;28;20129;-61
2021/05/20 03:27:51;;;;;;;2.28;2.08;;;;;;;16.14;43.54;101971.72;4136941;28;20041;-61
2021/05/20 03:29:51;;;;;;;2.38;1.92;;;;;;;16.08;43.77;101969.88;4140253;28;20030;-61
2021/05/20 03:31:51;;;;;;;3.40;2.05;;;;;;;16.06;43.81;101970.13;4133326;28;20049;-62
2021/05/20 03:33:52;;;;;;;3.25;2.28;;;;;;;15.96;44.16;101978.13;4133652;28;20385;-62
2021/05/20 03:35:56;;;;;;;1.70;1.60;;;;;;;16.10;43.82;101970.50;4142922;28;20022;-62
2021/05/20 03:37:56;;;;;;;1.67;1.58;;;;;;;16.09;43.71;101969.66;4134225;28;20041;-62
2021/05/20 03:39:56;;;;;;;1.92;1.67;;;;;;;15.98;43.96;101976.81;4144464;28;20053;-62
2021/05/20 03:41:57;;;;;;;3.45;1.98;;;;;;;15.97;43.92;101980.66;4133319;28;20521;-61
2021/05/20 03:43:57;;;;;;;1.95;1.75;;;;;;;16.12;43.64;101973.88;4136464;28;20167;-61
2021/05/20 03:45:58;;;;;;;2.67;2.47;;;;;;;15.83;44.11;101979.09;4137355;28;20084;-62
2021/05/20 03:47:58;;;;;;;3.63;2.40;;;;;;;15.82;44.07;101975.53;4137498;28;20485;-61
2021/05/20 03:49:59;;;;;;;1.80;1.50;;;;;;;15.68;44.20;101976.72;4138742;28;20029;-62
2021/05/20 03:52:00;;;;;;;2.03;1.70;;;;;;;15.75;44.22;101979.41;4140879;28;20038;-63
2021/05/20 03:54:00;;;;;;;2.70;2.00;;;;;;;15.78;44.10;101982.56;4136292;28;20029;-62
2021/05/20 03:56:01;;;;;;;2.03;1.92;;;;;;;15.66;44.25;101982.47;4136780;28;20483;-63
2021/05/20 03:58:01;;;;;;;2.58;2.20;;;;;;;15.87;43.91;101976.75;4144265;28;20073;-62
2021/05/20 04:00:04;;;;;;;2.40;2.17;;;;;;;15.55;44.63;101982.38;4131971;28;20037;-63
2021/05/20 04:02:05;;;;;;;2.70;2.00;;;;;;;15.65;44.22;101980.78;4144329;28;20033;-62
2021/05/20 04:04:05;;;;;;;2.17;1.90;;;;;;;15.83;43.84;101992.91;4138678;28;20496;-62
2021/05/20 04:06:07;;;;;;;2.92;2.60;;;;;;;15.58;44.80;101985.50;4139522;28;20061;-63
2021/05/20 04:08:07;;;;;;;2.67;1.88;;;;;;;15.76;44.09;101986.63;4152615;28;20439;-63
2021/05/20 04:10:09;;;;;;;2.25;1.88;;;;;;;15.70;44.09;101984.78;4140854;28;20033;-62
2021/05/20 04:12:10;;;;;;;2.60;1.95;;;;;;;15.65;44.40;101979.94;4139202;28;20499;-62
2021/05/20 04:14:10;;;;;;;2.75;1.92;;;;;;;15.85;43.85;101988.03;4140711;28;20406;-62
2021/05/20 04:16:12;;;;;;;2.50;1.95;;;;;;;15.79;43.81;101987.03;4136567;28;20030;-62
2021/05/20 04:18:12;;;;;;;1.83;1.60;;;;;;;15.80;43.86;101985.09;4144532;28;20534;-62
2021/05/20 04:20:13;;;;;;;2.97;1.55;;;;;;;15.73;44.19;101985.16;4138456;28;20038;-63
2021/05/20 04:22:14;;;;;;;2.40;2.20;;;;;;;15.71;43.98;101987.31;4141896;28;20464;-63
2021/05/20 04:24:14;;;;;;;2.22;1.52;;;;;;;15.97;43.68;101991.69;4128761;28;20057;-61
2021/05/20 04:26:21;;;;;;;1.65;1.40;;;;;;;16.15;43.22;101992.75;4139291;28;20046;-61
2021/05/20 04:28:21;;;;;;;1.75;1.63;;;;;;;15.96;43.49;101986.41;4136998;28;20073;-63
2021/05/20 04:30:22;;;;;;;2.08;1.60;;;;;;;15.87;43.74;101993.31;4140567;28;20042;-63
2021/05/20 04:32:23;;;;;;;2.28;1.52;;;;;;;15.88;43.84;101987.56;4137060;28;20065;-63
2021/05/20 04:34:23;;;;;;;1.65;1.45;;;;;;;16.07;43.22;101985.63;4145281;28;20451;-63
2021/05/20 04:36:24;;;;;;;4.38;1.75;;;;;;;16.02;43.49;101977.19;4140751;28;20329;-63
2021/05/20 04:38:24;;;;;;;2.60;1.73;;;;;;;15.89;43.70;101985.63;4138574;28;20045;-62
2021/05/20 04:40:25;;;;;;;2.58;1.70;;;;;;;16.11;43.27;101986.00;4134621;28;20034;-62
2021/05/20 04:42:25;;;;;;;2.50;1.77;;;;;;;16.03;43.29;101978.88;4137635;28;20042;-63
2021/05/20 04:44:27;;;;;;;1.60;1.50;;;;;;;15.87;43.83;101983.09;4144884;28;20158;-62
2021/05/20 04:46:27;;;;;;;4.40;1.63;;;;;;;15.90;43.56;101977.13;4140490;28;20099;-62
2021/05/20 04:48:27;;;;;;;2.50;1.52;;;;;;;15.73;44.13;101984.31;4141194;28;20046;-62
2021/05/20 04:50:28;;;;;;;3.05;1.95;;;;;;;15.93;43.70;101987.72;4133348;28;20107;-62
2021/05/20 04:52:29;;;;;;;2.97;1.88;;;;;;;15.89;43.87;101985.63;4135283;28;20033;-62
2021/05/20 04:54:29;;;;;;;2.20;2.10;;;;;;;15.69;44.31;101986.66;4138982;28;20057;-62
2021/05/20 04:56:29;;;;;;;2.65;1.73;;;;;;;15.92;43.81;101983.25;4139073;28;20034;-64
2021/05/20 04:58:30;;;;;;;3.45;2.08;;;;;;;15.62;44.42;101981.22;4137186;28;20037;-64
2021/05/20 05:00:30;;;;;;;2.13;1.65;;;;;;;16.10;43.44;101984.31;4135559;28;21831;-64
2021/05/20 05:02:31;;;;;;;2.08;1.73;;;;;;;15.94;43.83;101989.41;4131308;28;20045;-61
2021/05/20 05:04:32;;;;;;;2.10;1.85;;;;;;;15.87;43.54;101968.47;4139136;28;20057;-61
2021/05/20 05:06:32;;;;;;;4.90;2.15;;;;;;;15.81;44.02;101992.31;4136014;28;20753;-61
2021/05/20 05:08:32;;;;;;;1.98;1.50;;;;;;;16.08;43.47;101989.22;4133084;28;20056;-62
2021/05/20 05:10:33;;;;;;;5.35;2.08;;;;;;;15.82;44.01;101989.31;4137918;28;20392;-62
2021/05/20 05:12:33;;;;;;;2.90;1.95;;;;;;;15.97;43.92;101994.47;4138227;28;20025;-61
2021/05/20 05:14:34;;;;;;;2.70;1.67;;;;;;;15.93;43.74;101993.22;4135744;28;20045;-62
2021/05/20 05:16:34;;;;;;;1.95;1.60;;;;;;;16.08;43.26;101991.97;4137376;28;20034;-59
2021/05/20 05:18:34;;;;;;;2.63;1.38;;;;;;;15.90;43.91;101988.16;4133629;28;20045;-61
2021/05/20 05:20:35;;;;;;;2.30;2.10;;;;;;;16.18;43.27;101993.13;4136152;28;20048;-62
2021/05/20 05:22:35;;;;;;;2.72;1.98;;;;;;;15.89;43.91;101986.47;4134641;28;20034;-61
2021/05/20 05:24:36;;;;;;;2.15;1.98;;;;;;;16.04;43.46;101995.19;4137757;28;20034;-61
2021/05/20 05:26:36;;;;;;;2.08;1.52;;;;;;;16.02;43.49;101986.31;4136400;28;20109;-62
2021/05/20 05:28:37;;;;;;;3.45;1.60;;;;;;;16.28;43.00;101984.28;4150958;28;21494;-61
2021/05/20 05:30:38;;;;;;;3.05;2.25;;;;;;;16.14;43.41;101980.88;4134976;28;20100;-61
2021/05/20 05:32:38;;;;;;;4.03;1.88;;;;;;;16.21;43.19;101972.47;4140865;28;20339;-60
2021/05/20 05:34:39;;;;;;;3.15;1.63;;;;;;;16.31;43.07;101986.59;4135571;28;20329;-61
2021/05/20 05:36:40;;;;;;;3.42;1.85;;;;;;;16.14;43.52;101983.63;4132223;28;20096;-61
2021/05/20 05:38:40;;;;;;;2.22;1.75;;;;;;;16.24;43.28;101977.53;4140603;28;20476;-61
2021/05/20 05:40:41;;;;;;;3.25;1.73;;;;;;;16.11;43.70;101983.22;4138061;28;20034;-61
2021/05/20 05:42:42;;;;;;;3.53;1.80;;;;;;;16.01;43.79;101981.84;4137853;28;20484;-61
2021/05/20 05:44:42;;;;;;;3.80;2.10;;;;;;;15.98;44.00;101990.59;4139887;28;20091;-62
2021/05/20 05:46:43;;;;;;;1.80;1.35;;;;;;;16.18;43.38;101986.75;4135701;28;20026;-61
2021/05/20 05:48:46;;;;;;;2.15;1.58;;;;;;;16.16;43.43;101981.47;4135701;28;20037;-61
2021/05/20 05:50:49;;;;;;;1.95;1.73;;;;;;;15.82;43.94;101996.78;4134580;28;20629;-62
2021/05/20 05:52:49;;;;;;;2.50;2.30;;;;;;;15.84;44.21;101994.59;4138470;28;20117;-62
2021/05/20 05:54:52;;;;;;;4.40;2.33;;;;;;;16.13;43.65;101995.75;4139467;28;20616;-64
2021/05/20 05:56:53;;;;;;;3.33;1.73;;;;;;;16.34;42.90;101996.31;4137903;28;20308;-60
2021/05/20 05:58:54;;;;;;;2.92;1.75;;;;;;;16.57;42.42;101998.31;4136774;28;20045;-61
2021/05/20 06:00:55;;;;;;;2.67;2.00;;;;;;;16.26;43.10;102002.16;4134445;28;20038;-60
2021/05/20 06:02:55;;;;;;;1.98;1.77;;;;;;;16.22;43.24;102004.56;4134809;28;20137;-60
2021/05/20 06:04:56;;;;;;;4.07;1.85;;;;;;;16.40;42.97;101998.13;4139924;28;20053;-59
2021/05/20 06:06:57;;;;;;;3.47;1.77;;;;;;;16.32;42.93;101991.03;4135308;28;20054;-61
2021/05/20 06:08:57;;;;;;;3.53;2.17;;;;;;;16.46;42.76;102008.25;4136141;28;20030;-60
2021/05/20 06:10:58;;;;;;;2.28;1.85;;;;;;;16.34;42.90;102004.59;4140246;28;20069;-61
2021/05/20 06:12:59;;;;;;;3.83;1.90;;;;;;;16.59;42.36;102001.72;4135728;28;20383;-59
2021/05/20 06:15:00;;;;;;;1.90;1.60;;;;;;;16.33;42.87;101998.25;4134438;28;20034;-59
2021/05/20 06:17:00;;;;;;;3.53;1.95;;;;;;;16.55;42.40;102006.00;4131359;28;20037;-61
2021/05/20 06:19:04;;;;;;;1.63;1.52;;;;;;;16.61;42.41;101996.78;4135860;28;20404;-60
2021/05/20 06:21:04;;;;;;;2.00;1.90;;;;;;;16.48;42.32;101989.53;4135506;28;20041;-59
2021/05/20 06:23:07;;;;;;;2.78;1.58;;;;;;;16.79;41.78;102000.59;4135664;28;20042;-61
2021/05/20 06:25:07;;;;;;;3.40;2.00;;;;;;;16.68;42.07;101996.72;4134914;28;20164;-59
2021/05/20 06:27:08;;;;;;;3.28;2.03;;;;;;;16.44;42.61;101990.25;4134211;28;20120;-62
2021/05/20 06:29:09;;;;;;;4.13;1.90;;;;;;;16.26;42.88;101991.94;4132944;28;20069;-62
2021/05/20 06:31:09;;;;;;;2.25;2.05;;;;;;;16.50;42.44;102003.13;4134944;28;20226;-61
2021/05/20 06:33:10;;;;;;;3.58;2.53;;;;;;;16.50;42.48;102009.47;4139677;28;20049;-61
2021/05/20 06:35:11;;;;;;;3.78;2.30;;;;;;;16.55;42.17;102015.16;4135212;28;21224;-61
2021/05/20 06:37:11;;;;;;;2.42;1.95;;;;;;;16.59;42.04;102012.78;4141179;28;20104;-62
2021/05/20 06:39:12;;;;;;;4.43;2.40;;;;;;;16.50;42.50;102008.66;4143450;28;20030;-60
2021/05/20 06:41:12;;;;;;;3.63;1.80;;;;;;;16.51;42.35;102010.31;4140304;28;20045;-61
2021/05/20 06:43:13;;;;;;;1.63;1.52;;;;;;;16.88;41.31;102008.31;4140936;28;20049;-62
2021/05/20 06:45:13;;;;;;;2.35;2.00;;;;;;;16.68;41.92;102000.34;4143066;28;20033;-61
2021/05/20 06:47:14;;;;;;;3.55;1.98;;;;;;;16.58;42.05;102009.16;4141449;28;20125;-62
2021/05/20 06:49:14;;;;;;;3.88;2.10;;;;;;;16.42;42.68;102007.06;4139696;28;20022;-61
2021/05/20 06:51:15;;;;;;;3.60;2.42;;;;;;;16.75;41.73;102012.13;4138698;28;20037;-61
2021/05/20 06:53:19;;;;;;;3.10;2.03;;;;;;;16.78;42.10;102009.97;4138431;28;20036;-61
2021/05/20 06:55:20;;;;;;;4.35;1.70;;;;;;;16.87;41.44;101994.72;4134999;28;20037;-62
2021/05/20 06:57:25;;;;;;;3.00;2.20;;;;;;;16.77;41.71;102005.50;4139346;28;20046;-61
2021/05/20 07:01:46;;;;;;;3.95;2.30;;;;;;;16.56;42.05;102003.03;4132682;28;20052;-62
2021/05/20 07:03:47;;;;;;;4.35;1.98;;;;;;;16.88;41.60;102010.22;4141087;28;20034;-62
2021/05/20 07:05:49;;;;;;;5.03;2.80;;;;;;;16.81;42.02;102001.22;4141971;28;20099;-61
2021/05/20 07:07:50;;;;;;;6.32;3.00;;;;;;;16.97;41.43;102002.44;4134970;28;20049;-63
2021/05/20 07:09:52;;;;;;;6.07;3.33;;;;;;;16.98;41.40;101990.31;4138385;28;20034;-61
2021/05/20 07:11:53;;;;;;;5.65;2.90;;;;;;;16.93;41.18;101996.53;4140515;28;20036;-61
2021/05/20 07:13:54;;;;;;;6.10;3.30;;;;;;;16.82;41.48;101991.81;4138758;28;20124;-61
2021/05/20 07:15:54;;;;;;;6.97;3.70;;;;;;;16.66;41.42;101962.94;4140230;28;20034;-61
2021/05/20 07:17:55;;;;;;;5.28;3.50;;;;;;;16.72;41.65;101993.22;4135205;28;20030;-61
2021/05/20 07:19:56;;;;;;;7.80;4.15;;;;;;;16.78;41.59;101987.84;4135966;28;20521;-61
2021/05/20 07:21:57;;;;;;;5.85;2.90;;;;;;;17.03;40.90;101996.78;4132298;28;20027;-61
2021/05/20 07:23:57;;;;;;;5.30;2.90;;;;;;;16.95;40.95;101990.78;4134415;28;20177;-61
2021/05/20 07:25:57;;;;;;;6.50;3.30;;;;;;;17.05;40.97;101989.13;4134515;28;20057;-61
2021/05/20 07:27:58;;;;;;;4.90;3.05;;;;;;;16.92;40.96;101987.38;4131587;28;20034;-62
2021/05/20 07:30:00;;;;;;;12.18;3.75;;;;;;;16.97;41.05;101991.38;4129970;28;20050;-63
2021/05/20 07:32:00;;;;;;;5.65;3.70;;;;;;;17.27;40.71;101992.13;4138413;28;20033;-62
2021/05/20 07:34:00;;;;;;;6.38;3.00;;;;;;;17.58;39.92;101979.03;4138739;28;20499;-67
2021/05/20 07:36:01;;;;;;;9.35;3.00;;;;;;;17.55;40.07;101978.66;4136453;28;20037;-63
2021/05/20 07:38:02;;;;;;;8.00;3.13;;;;;;;17.71;39.99;101977.09;4138610;28;20033;-66
2021/05/20 07:40:04;;;;;;;12.13;3.05;;;;;;;17.77;40.04;101974.16;4139513;28;20494;-73
2021/05/20 07:42:05;;;;;;;9.98;2.78;;;;;;;17.77;40.25;101971.41;4138311;28;20137;-63
2021/05/20 07:44:06;;;;;;;9.05;3.13;;;;;;;17.92;39.85;101972.81;4139832;28;20081;-66
2021/05/20 07:46:07;;;;;;;11.20;2.92;;;;;;;17.93;39.98;101964.25;4138370;28;20033;-63
2021/05/20 07:48:08;;;;;;;8.02;3.03;;;;;;;17.93;40.02;101968.97;4139346;28;20543;-63
2021/05/20 07:50:09;;;;;;;3.45;2.42;;;;;;;17.96;40.08;101961.00;4137860;28;20485;-61
2021/05/20 07:52:10;;;;;;;6.30;2.72;;;;;;;17.96;40.02;101971.22;4141347;28;20033;-64
2021/05/20 07:54:10;;;;;;;6.03;2.47;;;;;;;18.06;40.11;101976.13;4138135;28;20038;-72
2021/05/20 07:56:11;;;;;;;7.78;2.42;;;;;;;18.12;39.95;101969.59;4141270;28;20568;-66
2021/05/20 07:58:11;;;;;;;7.72;2.17;;;;;;;18.13;39.87;101961.03;4142863;28;20026;-71
2021/05/20 08:00:12;;;;;;;7.85;2.63;;;;;;;18.20;39.79;101968.38;4140876;28;20088;-64
2021/05/20 08:04:15;;;;;;;7.68;2.83;;;;;;;18.23;39.81;101954.88;4138355;28;20050;-64
2021/05/20 08:06:20;;;;;;;6.38;2.42;;;;;;;18.27;39.95;101955.22;4139354;28;20088;-64
2021/05/20 08:12:22;;;;;;;4.25;2.05;;;;;;;18.13;40.32;101925.03;4148740;28;20512;-64
2021/05/20 08:14:23;;;;;;;4.68;1.60;;;;;;;18.42;40.12;101946.41;4136361;28;20471;-64
2021/05/20 08:16:23;;;;;;;4.28;2.00;;;;;;;18.44;39.82;101942.25;4136158;28;20073;-63
2021/05/20 08:18:24;;;;;;;7.40;2.67;;;;;;;18.37;39.90;101941.59;4137794;28;20034;-61
2021/05/20 08:20:24;;;;;;;7.75;1.52;;;;;;;18.49;39.73;101931.28;4131779;28;20317;-67
2021/05/20 08:22:25;;;;;;;3.88;2.22;;;;;;;18.37;39.99;101940.75;4138075;28;20038;-66
2021/05/20 08:24:25;;;;;;;5.15;2.38;;;;;;;18.49;39.40;101931.28;4136060;28;20069;-66
2021/05/20 08:26:26;;;;;;;3.70;1.92;;;;;;;18.55;39.64;101931.38;4135791;28;20407;-61
2021/05/20 08:28:27;;;;;;;5.97;1.88;;;;;;;18.57;39.20;101929.19;4131500;28;20041;-60
2021/05/20 08:30:27;;;;;;;3.53;1.80;;;;;;;18.55;39.16;101928.59;4137497;28;20030;-60
2021/05/20 08:32:28;;;;;;;4.22;1.67;;;;;;;18.60;39.05;101931.44;4135047;28;20571;-66
2021/05/20 08:34:28;;;;;;;2.60;1.52;;;;;;;18.63;38.77;101922.63;4136679;28;20037;-68
2021/05/20 08:36:31;;;;;;;4.25;1.35;;;;;;;18.54;39.46;101919.44;4139084;28;20396;-63
2021/05/20 08:38:31;;;;;;;5.47;1.42;;;;;;;18.75;38.95;101928.09;4144210;28;20049;-62
2021/05/20 08:40:32;;;;;;;2.97;1.35;;;;;;;18.75;39.32;101923.38;4145987;28;20038;-61
2021/05/20 08:42:33;;;;;;;2.80;1.40;;;;;;;18.76;39.05;101913.97;4136136;28;20034;-64
2021/05/20 08:44:33;;;;;;;2.78;1.58;;;;;;;18.75;38.84;101923.38;4135832;28;20038;-62
2021/05/20 08:46:33;;;;;;;6.22;1.33;;;;;;;18.71;39.17;101919.47;4134646;28;20037;-63
2021/05/20 08:48:34;;;;;;;14.85;2.10;;;;;;;18.82;38.68;101918.53;4140164;28;20040;-64
2021/05/20 08:50:35;;;;;;;5.93;1.17;;;;;;;18.81;38.87;101916.84;4138862;28;20041;-64
2021/05/20 08:52:38;;;;;;;5.90;1.33;;;;;;;18.92;38.63;101922.56;4138937;28;20083;-63
2021/05/20 08:54:38;;;;;;;4.55;1.58;;;;;;;18.95;38.75;101917.31;4135039;28;20030;-63
2021/05/20 08:56:49;;;;;;;7.28;1.13;;;;;;;18.92;38.81;101911.47;4135814;28;20393;-63
2021/05/20 08:58:49;;;;;;;2.10;1.17;;;;;;;19.01;38.47;101907.16;4133826;28;20033;-65
2021/05/20 09:00:49;;;;;;;5.10;1.10;;;;;;;19.04;38.22;101913.03;4135131;28;20030;-64
2021/05/20 09:02:51;;;;;;;2.05;1.02;;;;;;;18.96;38.61;101907.09;4133067;28;21452;-63
2021/05/20 09:05:06;;;;;;;3.95;1.00;;;;;;;18.99;38.57;101918.50;4136365;28;20030;-66
2021/05/20 09:07:13;;;;;;;3.95;1.38;;;;;;;19.08;38.72;101913.38;4135530;28;20080;-62
2021/05/20 09:09:23;;;;;;;2.78;1.15;;;;;;;19.05;38.58;101911.94;4136225;28;20456;-63
2021/05/20 09:11:24;;;;;;;3.80;1.23;;;;;;;19.08;38.40;101913.38;4138598;28;20034;-64
2021/05/20 09:13:29;;;;;;;2.63;1.23;;;;;;;19.08;38.74;101905.06;4136868;28;20064;-61
2021/05/20 09:15:34;;;;;;;1.35;1.10;;;;;;;19.20;38.04;101907.75;4135711;28;20047;-59
2021/05/20 09:17:34;;;;;;;5.75;1.52;;;;;;;19.22;38.23;101906.41;4136867;28;20034;-62
2021/05/20 09:19:35;;;;;;;6.03;1.67;;;;;;;19.23;38.71;101897.00;4135538;28;20566;-60
2021/05/20 09:21:36;;;;;;;1.88;1.00;;;;;;;19.29;38.27;101897.03;4138716;28;20033;-63
2021/05/20 09:23:48;;;;;;;2.42;1.20;;;;;;;19.31;38.79;101892.06;4134221;28;20140;-61
2021/05/20 09:25:51;;;;;;;4.18;1.20;;;;;;;19.34;38.40;101891.56;4138149;28;20065;-63
2021/05/20 09:27:51;;;;;;;2.70;1.17;;;;;;;19.38;38.62;101892.72;4140496;28;20042;-73
2021/05/20 09:30:14;;;;;;;4.43;0.90;;;;;;;19.40;38.55;101896.09;4136435;28;20082;-64